createdAt,value
2022-09-05T00:04:08.420Z,3.75
2022-09-05T00:09:50.736Z,3.13
2022-09-05T00:15:16.627Z,3.47
2022-09-05T00:24:19.421Z,4.00
2022-09-05T00:26:06.545Z,4.25
2022-09-05T00:31:55.891Z,4.13
2022-09-05T00:36:58.837Z,3.33
2022-09-05T00:42:11.966Z,5.13
2022-09-05T00:47:23.447Z,4.10
2022-09-05T00:52:33.186Z,4.28
2022-09-05T00:58:02.191Z,3.80
2022-09-05T01:03:18.492Z,4.18
2022-09-05T01:08:47.272Z,3.72
2022-09-05T01:14:01.274Z,3.45
2022-09-05T01:19:16.465Z,4.07
2022-09-05T01:24:44.078Z,4.05
2022-09-05T01:29:56.534Z,4.18
2022-09-05T01:35:28.298Z,3.90
2022-09-05T01:40:45.280Z,3.92
2022-09-05T01:46:11.806Z,3.83
2022-09-05T01:51:29.491Z,4.38
2022-09-05T01:56:48.264Z,6.15
2022-09-05T02:02:13.974Z,5.28
2022-09-05T02:07:30.823Z,4.65
2022-09-05T02:12:38.896Z,4.30
2022-09-05T02:17:54.806Z,4.45
2022-09-05T02:23:40.356Z,4.18
2022-09-05T02:28:38.197Z,4.72
2022-09-05T02:33:50.224Z,4.45
2022-09-05T02:45:00.090Z,4.22
2022-09-05T02:45:17.950Z,4.60
2022-09-05T02:52:08.930Z,4.43
2022-09-05T02:57:33.719Z,4.35
2022-09-05T03:01:10.423Z,6.03
2022-09-05T03:06:34.878Z,4.53
2022-09-05T03:12:28.510Z,8.50
2022-09-05T03:17:47.594Z,7.25
2022-09-05T03:23:33.326Z,7.40
2022-09-05T03:29:11.148Z,5.10
2022-09-05T03:34:36.652Z,6.28
2022-09-05T03:40:16.024Z,5.18
2022-09-05T03:45:51.619Z,5.85
2022-09-05T03:57:11.650Z,6.32
2022-09-05T03:57:28.081Z,6.93
2022-09-05T04:08:09.442Z,7.20
2022-09-05T04:08:25.939Z,6.32
2022-09-05T04:13:04.820Z,6.20
2022-09-05T04:18:32.705Z,5.75
2022-09-05T04:23:50.206Z,5.32
2022-09-05T04:29:02.994Z,6.82
2022-09-05T04:34:20.841Z,5.70
2022-09-05T04:39:33.466Z,5.57
2022-09-05T04:44:44.478Z,5.22
2022-09-05T04:49:55.381Z,5.13
2022-09-05T04:55:04.764Z,4.95
2022-09-05T05:06:03.556Z,5.40
2022-09-05T05:06:16.671Z,5.68
2022-09-05T05:17:22.295Z,5.07
2022-09-05T05:18:15.971Z,4.88
2022-09-05T05:22:20.078Z,5.63
2022-09-05T05:28:01.511Z,5.68
2022-09-05T05:33:27.738Z,6.85
2022-09-05T05:38:38.822Z,6.68
2022-09-05T05:43:47.617Z,7.40
2022-09-05T05:48:59.138Z,7.20
2022-09-05T05:54:15.638Z,5.53
2022-09-05T05:59:56.538Z,4.35
2022-09-05T06:05:26.946Z,4.93
2022-09-05T06:14:52.724Z,6.72
2022-09-05T06:16:54.504Z,7.22
2022-09-05T06:22:28.551Z,4.00
2022-09-05T06:28:18.115Z,3.45
2022-09-05T06:33:30.720Z,3.35
2022-09-05T06:38:56.741Z,4.40
2022-09-05T06:44:20.066Z,5.22
2022-09-05T06:49:45.890Z,4.18
2022-09-05T06:55:21.293Z,3.20
2022-09-05T07:00:27.870Z,3.22
2022-09-05T07:05:45.568Z,3.78
2022-09-05T07:11:02.962Z,3.83
2022-09-05T07:16:26.636Z,2.50
2022-09-05T07:28:26.236Z,2.92
2022-09-05T07:33:31.684Z,3.55
2022-09-05T07:38:54.959Z,3.17
2022-09-05T07:44:07.874Z,2.95
2022-09-05T07:49:16.628Z,2.65
2022-09-05T07:56:52.411Z,3.42
2022-09-05T08:00:00.608Z,4.90
2022-09-05T08:05:07.382Z,5.22
2022-09-05T08:10:17.363Z,2.78
2022-09-05T08:15:38.304Z,3.25
2022-09-05T08:20:56.262Z,2.25
2022-09-05T08:26:08.848Z,2.72
2022-09-05T08:31:17.161Z,2.53
2022-09-05T08:36:29.312Z,2.67
2022-09-05T08:41:51.528Z,2.83
2022-09-05T08:47:05.426Z,2.75
2022-09-05T08:52:14.580Z,3.35
2022-09-05T08:57:28.512Z,2.90
2022-09-05T09:03:03.830Z,3.13
2022-09-05T09:08:16.381Z,3.80
2022-09-05T09:13:33.079Z,3.50
2022-09-05T09:19:01.483Z,3.83
2022-09-05T09:24:16.981Z,4.05
2022-09-05T09:29:25.060Z,3.22
2022-09-05T09:34:57.052Z,2.70
2022-09-05T09:40:37.510Z,3.08
2022-09-05T09:45:59.062Z,2.88
2022-09-05T09:51:26.925Z,3.10
2022-09-05T09:56:55.421Z,2.58
2022-09-05T10:03:36.333Z,3.03
2022-09-05T10:10:50.233Z,2.30
2022-09-05T10:13:42.008Z,2.28
2022-09-05T10:18:59.701Z,3.30
2022-09-05T10:24:51.474Z,3.10
2022-09-05T10:30:15.045Z,2.03
2022-09-05T10:35:30.599Z,2.15
2022-09-05T10:41:09.659Z,1.52
2022-09-05T10:46:17.015Z,1.98
2022-09-05T10:51:37.813Z,1.67
2022-09-05T10:56:46.621Z,1.55
2022-09-05T11:02:25.980Z,2.92
2022-09-05T11:07:42.369Z,2.10
2022-09-05T11:13:21.781Z,2.42
2022-09-05T11:18:55.693Z,3.08
2022-09-05T11:24:11.224Z,2.10
2022-09-05T11:29:19.350Z,1.75
2022-09-05T11:40:00.164Z,2.15
2022-09-05T11:40:42.520Z,1.92
2022-09-05T11:46:40.503Z,1.73
2022-09-05T11:52:19.436Z,1.92
2022-09-05T11:57:47.953Z,1.70
2022-09-05T12:03:58.083Z,2.17
2022-09-05T12:09:07.842Z,1.65
2022-09-05T12:14:29.250Z,1.92
2022-09-05T12:19:37.871Z,1.90
2022-09-05T12:25:24.973Z,1.92
2022-09-05T12:30:28.880Z,2.92
2022-09-05T12:36:05.918Z,1.92
2022-09-05T12:41:43.804Z,2.33
2022-09-05T12:46:58.351Z,2.45
2022-09-05T12:52:39.749Z,3.05
2022-09-05T13:02:26.459Z,1.83
2022-09-05T13:03:59.344Z,1.60
2022-09-05T13:15:57.937Z,1.73
2022-09-05T13:39:32.364Z,1.83
2022-09-05T13:44:43.615Z,1.95
2022-09-05T13:56:52.993Z,1.88
2022-09-05T14:08:33.949Z,1.80
2022-09-05T14:20:08.805Z,1.75
2022-09-05T14:25:18.378Z,1.52
2022-09-05T14:34:07.073Z,1.83
2022-09-05T14:49:14.397Z,1.85
2022-09-05T15:52:59.198Z,2.10
2022-09-05T16:38:12.327Z,2.42
2022-09-05T17:12:00.929Z,2.95
2022-09-05T17:27:21.239Z,2.90
2022-09-05T17:29:30.090Z,2.80
2022-09-05T17:40:01.708Z,2.60
2022-09-05T17:45:16.019Z,2.40
2022-09-05T17:51:03.657Z,3.47
2022-09-05T17:56:36.583Z,2.25
2022-09-05T18:02:12.536Z,2.70
2022-09-05T18:08:09.833Z,2.88
2022-09-05T18:13:32.368Z,2.47
2022-09-05T18:19:28.784Z,2.88
2022-09-05T18:24:12.042Z,3.45
2022-09-05T18:29:58.585Z,2.70
2022-09-05T18:35:32.177Z,2.72
2022-09-05T18:41:18.520Z,3.63
2022-09-05T18:46:26.036Z,3.17
2022-09-05T18:51:37.022Z,4.20
2022-09-05T18:57:11.996Z,3.40
2022-09-05T19:02:39.608Z,3.03
2022-09-05T19:07:59.444Z,3.45
2022-09-05T19:13:19.910Z,3.53
2022-09-05T19:18:56.217Z,3.92
2022-09-05T19:24:15.240Z,3.75
2022-09-05T19:33:31.352Z,3.40
2022-09-05T19:36:53.409Z,4.05
2022-09-05T19:47:55.868Z,3.33
2022-09-05T19:52:00.791Z,3.70
2022-09-05T20:08:45.954Z,5.13
2022-09-05T20:14:21.322Z,4.88
2022-09-05T20:19:43.239Z,4.63
2022-09-05T20:24:50.932Z,6.70
2022-09-05T20:30:03.207Z,4.63
2022-09-05T20:36:43.962Z,4.57
2022-09-05T20:43:24.588Z,4.78
2022-09-05T20:46:40.337Z,5.22
2022-09-05T20:54:17.370Z,4.72
2022-09-05T20:57:35.199Z,4.22
2022-09-05T21:03:09.087Z,4.63
2022-09-05T21:08:29.991Z,4.40
2022-09-05T21:13:38.383Z,4.43
2022-09-05T21:19:01.453Z,4.53
2022-09-05T21:24:48.053Z,4.68
2022-09-05T21:29:59.793Z,4.10
2022-09-05T21:35:15.404Z,4.20
2022-09-05T21:40:34.424Z,4.50
2022-09-05T21:47:39.037Z,4.90
2022-09-05T21:51:10.610Z,4.10
2022-09-05T21:59:17.641Z,4.45
2022-09-05T22:01:51.636Z,4.50
2022-09-05T22:07:01.150Z,4.10
2022-09-05T22:12:29.875Z,4.35
2022-09-05T22:22:41.903Z,4.63
2022-09-05T22:27:50.616Z,5.90
2022-09-05T22:32:55.954Z,4.93
2022-09-05T22:38:11.847Z,5.07
2022-09-05T22:43:18.131Z,5.13
2022-09-05T22:48:23.471Z,5.15
2022-09-05T22:53:31.517Z,5.82
2022-09-05T22:58:40.833Z,5.50
2022-09-05T23:03:46.002Z,6.32
2022-09-05T23:08:53.971Z,7.43
2022-09-05T23:13:59.142Z,6.60
2022-09-05T23:19:04.371Z,6.57
2022-09-05T23:24:12.205Z,6.18
2022-09-05T23:29:17.370Z,5.75
2022-09-05T23:34:22.768Z,6.25
2022-09-05T23:39:30.661Z,6.07
2022-09-05T23:44:35.801Z,5.85
2022-09-05T23:49:40.904Z,5.63
2022-09-05T23:54:48.724Z,6.30
2022-09-05T23:59:53.923Z,7.13
